createdAt,value
2023-02-23T00:02:06.823Z,5.82
2023-02-23T00:04:38.586Z,5.85
2023-02-23T00:07:12.294Z,5.50
2023-02-23T00:09:43.353Z,5.22
2023-02-23T00:12:14.234Z,5.30
2023-02-23T00:14:45.125Z,4.55
2023-02-23T00:17:17.793Z,4.72
2023-02-23T00:19:50.781Z,5.13
2023-02-23T00:22:24.203Z,5.57
2023-02-23T00:24:57.724Z,4.45
2023-02-23T00:27:28.517Z,5.00
2023-02-23T00:30:01.832Z,4.53
2023-02-23T00:32:32.888Z,4.93
2023-02-23T00:35:04.836Z,4.53
2023-02-23T00:37:38.415Z,4.55
2023-02-23T00:40:14.097Z,5.18
2023-02-23T00:42:45.396Z,4.60
2023-02-23T00:45:16.948Z,4.50
2023-02-23T00:47:48.979Z,4.80
2023-02-23T00:50:21.267Z,4.53
2023-02-23T00:52:54.702Z,4.97
2023-02-23T00:55:27.853Z,5.45
2023-02-23T00:57:58.777Z,4.18
2023-02-23T01:00:31.854Z,4.55
2023-02-23T01:03:02.819Z,5.15
2023-02-23T01:05:37.384Z,4.55
2023-02-23T01:08:11.081Z,4.55
2023-02-23T01:10:44.564Z,4.38
2023-02-23T01:13:18.295Z,3.63
2023-02-23T01:15:50.086Z,3.92
2023-02-23T01:18:22.341Z,4.00
2023-02-23T01:20:53.928Z,4.20
2023-02-23T01:23:27.374Z,5.32
2023-02-23T01:25:58.194Z,5.50
2023-02-23T01:28:29.027Z,4.93
2023-02-23T01:31:00.042Z,5.47
2023-02-23T01:33:32.185Z,5.28
2023-02-23T01:36:03.340Z,4.95
2023-02-23T01:38:36.976Z,4.35
2023-02-23T01:41:09.355Z,4.38
2023-02-23T01:43:58.621Z,3.90
2023-02-23T01:46:29.941Z,4.22
2023-02-23T01:49:01.236Z,3.97
2023-02-23T01:51:35.321Z,4.07
2023-02-23T01:54:16.176Z,4.75
2023-02-23T01:56:58.457Z,4.32
2023-02-23T01:59:35.798Z,4.82
2023-02-23T02:02:08.005Z,4.35
2023-02-23T02:04:44.962Z,5.28
2023-02-23T02:07:17.910Z,4.47
2023-02-23T02:10:09.794Z,5.32
2023-02-23T02:12:41.660Z,4.05
2023-02-23T02:15:17.766Z,4.13
2023-02-23T02:17:56.782Z,3.03
2023-02-23T02:20:50.680Z,2.90
2023-02-23T02:24:03.022Z,2.95
2023-02-23T02:26:46.734Z,3.03
2023-02-23T02:29:47.921Z,3.00
2023-02-23T02:32:42.382Z,3.75
2023-02-23T02:35:38.342Z,4.32
2023-02-23T02:38:20.691Z,4.40
2023-02-23T02:40:57.052Z,3.80
2023-02-23T02:43:35.139Z,3.92
2023-02-23T02:46:09.251Z,3.15
2023-02-23T02:48:49.107Z,4.30
2023-02-23T02:51:28.830Z,3.78
2023-02-23T02:54:07.445Z,4.15
2023-02-23T02:56:42.070Z,4.07
2023-02-23T02:59:28.884Z,5.53
2023-02-23T03:02:12.888Z,5.15
2023-02-23T03:04:56.117Z,4.85
2023-02-23T03:07:46.984Z,4.78
2023-02-23T03:10:43.169Z,3.97
2023-02-23T03:13:34.375Z,3.78
2023-02-23T03:16:31.256Z,3.65
2023-02-23T03:19:28.974Z,4.07
2023-02-23T03:22:18.352Z,3.83
2023-02-23T03:25:10.551Z,3.55
2023-02-23T03:28:05.132Z,4.38
2023-02-23T03:30:58.953Z,3.67
2023-02-23T03:33:51.248Z,3.63
2023-02-23T03:36:41.206Z,3.25
2023-02-23T03:39:33.200Z,3.83
2023-02-23T03:42:19.526Z,3.97
2023-02-23T03:45:08.000Z,3.47
2023-02-23T03:47:56.142Z,2.75
2023-02-23T03:50:46.303Z,4.20
2023-02-23T03:53:33.263Z,3.45
2023-02-23T03:56:17.492Z,3.80
2023-02-23T03:59:04.529Z,3.80
2023-02-23T04:01:52.841Z,3.30
2023-02-23T04:04:37.559Z,3.25
2023-02-23T04:07:23.813Z,3.13
2023-02-23T04:10:06.937Z,2.85
2023-02-23T04:12:58.408Z,3.10
2023-02-23T04:15:30.877Z,3.83
2023-02-23T04:18:06.460Z,3.50
2023-02-23T04:20:37.537Z,2.65
2023-02-23T04:23:08.379Z,3.28
2023-02-23T04:25:39.238Z,2.50
2023-02-23T04:28:10.169Z,3.03
2023-02-23T04:30:41.120Z,3.10
2023-02-23T04:33:14.597Z,2.75
2023-02-23T04:35:45.469Z,2.60
2023-02-23T04:38:16.321Z,3.17
2023-02-23T04:40:47.129Z,3.75
2023-02-23T04:43:18.490Z,3.55
2023-02-23T04:45:49.613Z,3.45
2023-02-23T04:48:25.254Z,3.00
2023-02-23T04:50:56.501Z,3.08
2023-02-23T04:53:27.498Z,3.45
2023-02-23T04:55:58.356Z,3.60
2023-02-23T04:58:29.387Z,3.42
2023-02-23T05:01:08.300Z,3.90
2023-02-23T05:03:41.665Z,3.70
2023-02-23T05:06:13.004Z,4.78
2023-02-23T05:08:43.910Z,4.68
2023-02-23T05:11:15.590Z,4.32
2023-02-23T05:13:46.358Z,4.82
2023-02-23T05:16:18.455Z,4.60
2023-02-23T05:18:52.380Z,4.28
2023-02-23T05:21:23.732Z,4.00
2023-02-23T05:23:54.876Z,4.40
2023-02-23T05:26:26.097Z,4.32
2023-02-23T05:28:57.370Z,4.35
2023-02-23T05:31:28.699Z,4.68
2023-02-23T05:34:02.334Z,4.43
2023-02-23T05:36:33.622Z,4.20
2023-02-23T05:39:04.357Z,4.55
2023-02-23T05:41:35.138Z,4.10
2023-02-23T05:44:06.004Z,4.00
2023-02-23T05:46:36.941Z,3.95
2023-02-23T05:49:12.599Z,3.17
2023-02-23T05:51:43.499Z,3.95
2023-02-23T05:54:14.480Z,3.38
2023-02-23T05:56:45.270Z,4.25
2023-02-23T05:59:17.597Z,3.72
2023-02-23T06:01:48.567Z,4.22
2023-02-23T06:04:22.108Z,4.28
2023-02-23T06:06:53.023Z,4.30
2023-02-23T06:09:23.766Z,4.18
2023-02-23T06:11:54.522Z,3.80
2023-02-23T06:14:25.328Z,3.67
2023-02-23T06:16:56.178Z,4.47
2023-02-23T06:19:29.647Z,3.80
2023-02-23T06:22:00.601Z,3.95
2023-02-23T06:24:31.458Z,5.13
2023-02-23T06:27:02.291Z,5.43
2023-02-23T06:29:33.176Z,6.25
2023-02-23T06:32:04.134Z,6.35
2023-02-23T06:34:38.522Z,6.68
2023-02-23T06:37:10.006Z,6.57
2023-02-23T06:39:40.762Z,5.72
2023-02-23T06:42:11.628Z,5.90
2023-02-23T06:44:42.615Z,5.85
2023-02-23T06:47:13.543Z,5.72
2023-02-23T06:49:47.969Z,8.10
2023-02-23T06:52:19.015Z,5.88
2023-02-23T06:54:50.325Z,5.95
2023-02-23T06:57:22.022Z,5.50
2023-02-23T06:59:53.591Z,5.72
2023-02-23T07:02:24.466Z,5.53
2023-02-23T07:04:58.915Z,6.70
2023-02-23T07:07:29.781Z,6.68
2023-02-23T07:10:00.646Z,6.00
2023-02-23T07:12:31.443Z,6.40
2023-02-23T07:15:02.246Z,12.27
2023-02-23T07:17:33.082Z,7.35
2023-02-23T07:20:07.659Z,9.70
2023-02-23T07:22:39.984Z,9.00
2023-02-23T07:25:12.263Z,8.73
2023-02-23T07:27:45.620Z,9.43
2023-02-23T07:30:19.639Z,9.05
2023-02-23T07:32:50.558Z,8.57
2023-02-23T07:35:24.221Z,8.48
2023-02-23T07:37:56.044Z,9.60
2023-02-23T07:40:26.898Z,8.70
2023-02-23T07:42:58.446Z,9.77
2023-02-23T07:45:29.711Z,8.77
2023-02-23T07:48:00.701Z,9.38
2023-02-23T07:50:34.164Z,7.97
2023-02-23T07:53:06.376Z,8.27
2023-02-23T07:55:38.629Z,8.45
2023-02-23T07:58:10.190Z,8.18
2023-02-23T08:00:41.013Z,7.03
2023-02-23T08:03:11.945Z,7.78
2023-02-23T08:05:45.437Z,7.57
2023-02-23T08:08:16.326Z,9.65
2023-02-23T08:10:49.867Z,7.95
2023-02-23T08:13:21.242Z,8.05
2023-02-23T08:15:52.114Z,9.45
2023-02-23T08:18:23.027Z,10.95
2023-02-23T08:21:01.709Z,10.35
2023-02-23T08:23:33.860Z,10.88
2023-02-23T08:26:05.335Z,9.88
2023-02-23T08:28:36.143Z,9.80
2023-02-23T08:31:07.002Z,10.05
2023-02-23T08:33:39.053Z,9.45
2023-02-23T08:36:13.265Z,10.63
2023-02-23T08:38:44.115Z,12.15
2023-02-23T08:41:15.064Z,9.32
2023-02-23T08:43:45.929Z,10.15
2023-02-23T08:46:20.504Z,10.27
2023-02-23T08:48:51.521Z,9.48
2023-02-23T08:51:25.009Z,10.98
2023-02-23T08:53:57.417Z,9.75
2023-02-23T08:56:28.702Z,9.10
2023-02-23T08:58:59.650Z,8.80
2023-02-23T09:01:30.467Z,8.13
2023-02-23T09:04:01.346Z,8.23
2023-02-23T09:06:35.897Z,8.95
2023-02-23T09:09:07.725Z,10.23
2023-02-23T09:11:38.733Z,9.65
2023-02-23T09:14:09.734Z,10.15
2023-02-23T09:16:40.634Z,10.65
2023-02-23T09:19:11.675Z,10.95
2023-02-23T09:21:46.466Z,6.63
2023-02-23T09:24:18.783Z,11.20
2023-02-23T09:26:49.685Z,8.13
2023-02-23T09:29:20.579Z,7.97
2023-02-23T09:31:53.199Z,6.43
2023-02-23T09:34:24.125Z,7.03
2023-02-23T09:36:57.641Z,9.10
2023-02-23T09:39:37.744Z,6.95
2023-02-23T09:42:23.489Z,8.18
2023-02-23T09:45:15.144Z,12.23
2023-02-23T09:47:59.983Z,6.95
2023-02-23T09:50:33.586Z,9.57
2023-02-23T09:53:10.824Z,7.90
2023-02-23T09:55:44.174Z,6.60
2023-02-23T09:58:24.125Z,7.43
2023-02-23T10:01:10.028Z,5.75
2023-02-23T10:03:42.942Z,6.00
2023-02-23T10:06:21.564Z,5.68
2023-02-23T10:09:06.626Z,4.97
2023-02-23T10:11:46.885Z,5.20
2023-02-23T10:14:38.226Z,6.65
2023-02-23T10:17:19.444Z,8.15
2023-02-23T10:19:59.618Z,9.65
2023-02-23T10:22:31.680Z,9.65
2023-02-23T10:25:08.945Z,8.68
2023-02-23T10:27:43.929Z,7.78
2023-02-23T10:30:22.824Z,7.40
2023-02-23T10:33:00.815Z,8.32
2023-02-23T10:35:33.952Z,6.70
2023-02-23T10:38:05.623Z,6.50
2023-02-23T10:40:39.130Z,8.57
2023-02-23T10:43:10.310Z,8.60
2023-02-23T10:45:47.683Z,8.85
2023-02-23T10:48:22.303Z,8.32
2023-02-23T10:50:55.554Z,7.70
2023-02-23T10:53:28.416Z,7.82
2023-02-23T10:56:11.225Z,6.32
2023-02-23T10:58:47.444Z,7.00
2023-02-23T11:01:19.547Z,9.85
2023-02-23T11:04:05.494Z,8.90
2023-02-23T11:06:42.560Z,7.88
2023-02-23T11:09:43.222Z,7.90
2023-02-23T11:12:25.634Z,5.18
2023-02-23T11:14:59.033Z,2.20
2023-02-23T11:17:36.616Z,1.75
2023-02-23T11:20:21.143Z,1.75
2023-02-23T11:22:52.472Z,1.52
2023-02-23T11:25:30.828Z,2.00
2023-02-23T11:28:05.545Z,1.75
2023-02-23T11:30:43.865Z,2.25
2023-02-23T11:33:20.311Z,3.10
2023-02-23T11:35:51.184Z,1.50
2023-02-23T11:38:27.858Z,1.75
2023-02-23T11:41:03.750Z,1.85
2023-02-23T11:43:37.202Z,2.00
2023-02-23T11:46:08.446Z,1.92
2023-02-23T11:48:47.238Z,1.60
2023-02-23T11:51:27.848Z,3.53
2023-02-23T11:53:59.262Z,1.45
2023-02-23T11:56:32.476Z,1.42
2023-02-23T11:59:11.229Z,2.40
2023-02-23T12:01:46.837Z,1.92
2023-02-23T12:04:31.149Z,1.70
2023-02-23T12:07:26.954Z,2.08
2023-02-23T12:10:06.809Z,2.60
2023-02-23T12:12:47.465Z,2.50
2023-02-23T12:15:29.518Z,2.33
2023-02-23T12:18:07.626Z,2.30
2023-02-23T12:20:44.262Z,2.67
2023-02-23T12:23:18.924Z,2.40
2023-02-23T12:25:56.237Z,3.58
2023-02-23T12:28:35.724Z,2.83
2023-02-23T12:31:18.205Z,3.15
2023-02-23T12:33:55.660Z,3.40
2023-02-23T12:36:38.729Z,3.30
2023-02-23T12:39:21.339Z,3.95
2023-02-23T12:42:01.204Z,3.60
2023-02-23T12:44:43.332Z,3.22
2023-02-23T12:47:29.941Z,5.55
2023-02-23T12:50:07.501Z,4.13
2023-02-23T12:52:45.175Z,4.18
2023-02-23T12:55:17.573Z,3.80
2023-02-23T12:57:57.875Z,3.05
2023-02-23T13:00:50.518Z,3.03
2023-02-23T13:03:48.388Z,3.88
2023-02-23T13:06:30.897Z,2.90
2023-02-23T13:09:11.505Z,2.67
2023-02-23T13:12:14.935Z,2.90
2023-02-23T13:14:54.340Z,3.20
2023-02-23T13:17:40.868Z,3.40
2023-02-23T13:20:21.691Z,2.78
2023-02-23T13:22:58.513Z,2.97
2023-02-23T13:25:40.369Z,5.13
2023-02-23T13:28:20.100Z,5.78
2023-02-23T13:30:53.165Z,3.10
2023-02-23T13:33:43.674Z,3.75
2023-02-23T13:36:18.408Z,3.63
2023-02-23T13:39:18.524Z,3.58
2023-02-23T13:41:59.120Z,2.88
2023-02-23T13:44:37.320Z,3.72
2023-02-23T13:47:17.293Z,3.10
2023-02-23T13:49:55.738Z,3.80
2023-02-23T13:52:35.998Z,3.10
2023-02-23T13:55:08.762Z,3.47
2023-02-23T13:57:40.649Z,3.28
2023-02-23T14:00:22.267Z,4.20
2023-02-23T14:02:53.900Z,3.60
2023-02-23T14:05:27.900Z,5.00
2023-02-23T14:08:04.766Z,3.83
2023-02-23T14:13:32.280Z,2.60
2023-02-23T14:16:20.611Z,2.78
2023-02-23T14:19:08.564Z,2.55
2023-02-23T14:21:46.101Z,2.80
2023-02-23T14:24:30.694Z,2.40
2023-02-23T14:27:41.672Z,2.50
2023-02-23T14:30:25.925Z,3.17
2023-02-23T14:32:57.232Z,3.38
2023-02-23T14:35:48.662Z,4.10
2023-02-23T14:38:47.420Z,3.33
2023-02-23T14:41:25.692Z,2.58
2023-02-23T14:43:58.884Z,2.40
2023-02-23T14:46:31.073Z,3.28
2023-02-23T14:49:04.367Z,2.95
2023-02-23T14:51:45.203Z,3.70
2023-02-23T14:54:25.686Z,2.58
2023-02-23T14:57:01.075Z,3.25
2023-02-23T14:59:38.956Z,3.10
2023-02-23T15:02:14.849Z,2.85
2023-02-23T15:04:45.876Z,3.28
2023-02-23T15:07:25.445Z,3.17
2023-02-23T15:09:59.102Z,3.88
2023-02-23T15:12:38.273Z,3.42
2023-02-23T15:15:20.988Z,3.88
2023-02-23T15:17:55.446Z,3.63
2023-02-23T15:20:32.879Z,3.90
2023-02-23T15:23:06.487Z,3.63
2023-02-23T15:25:40.468Z,3.80
2023-02-23T15:28:26.596Z,4.07
2023-02-23T15:30:58.788Z,4.78
2023-02-23T15:33:31.283Z,4.50
2023-02-23T15:36:13.014Z,5.20
2023-02-23T15:38:49.311Z,5.90
2023-02-23T15:41:30.784Z,4.65
2023-02-23T15:44:10.143Z,5.88
2023-02-23T15:46:41.942Z,4.13
2023-02-23T15:49:17.612Z,4.40
2023-02-23T15:51:52.369Z,4.90
2023-02-23T15:54:27.242Z,4.72
2023-02-23T15:57:01.095Z,3.78
2023-02-23T15:59:38.827Z,4.28
2023-02-23T16:02:19.609Z,3.70
2023-02-23T16:04:52.995Z,3.90
2023-02-23T16:07:26.628Z,4.25
2023-02-23T16:09:58.479Z,4.45
2023-02-23T16:12:33.915Z,4.65
2023-02-23T16:15:17.175Z,4.13
2023-02-23T16:17:50.347Z,4.15
2023-02-23T16:20:29.272Z,4.35
2023-02-23T16:23:02.749Z,5.60
2023-02-23T16:25:35.452Z,5.60
2023-02-23T16:28:10.852Z,6.13
2023-02-23T16:30:57.378Z,5.82
2023-02-23T16:33:29.788Z,6.03
2023-02-23T16:36:19.754Z,5.50
2023-02-23T16:39:00.829Z,6.20
2023-02-23T16:41:33.875Z,5.68
2023-02-23T16:44:06.617Z,5.88
2023-02-23T16:46:59.882Z,5.30
2023-02-23T16:49:31.538Z,6.50
2023-02-23T16:52:05.181Z,7.72
2023-02-23T16:54:36.132Z,7.97
2023-02-23T16:57:08.665Z,7.63
2023-02-23T16:59:39.446Z,7.93
2023-02-23T17:02:14.411Z,8.73
2023-02-23T17:04:49.123Z,9.73
2023-02-23T17:07:22.888Z,10.38
2023-02-23T17:09:54.791Z,10.32
2023-02-23T17:12:25.739Z,13.60
2023-02-23T17:15:04.568Z,13.43
2023-02-23T17:17:41.187Z,16.85
2023-02-23T17:20:15.916Z,14.95
2023-02-23T17:22:46.958Z,12.77
2023-02-23T17:25:17.848Z,13.18
2023-02-23T17:28:06.587Z,15.70
2023-02-23T17:30:42.904Z,14.80
2023-02-23T17:33:17.534Z,15.95
2023-02-23T17:35:49.082Z,16.58
2023-02-23T17:38:21.798Z,15.40
2023-02-23T17:40:52.706Z,15.00
2023-02-23T17:43:24.212Z,14.43
2023-02-23T17:45:57.673Z,15.63
2023-02-23T17:48:34.847Z,16.20
2023-02-23T17:51:09.221Z,16.83
2023-02-23T17:53:43.608Z,15.88
2023-02-23T17:56:16.286Z,15.65
2023-02-23T17:58:47.257Z,15.90
2023-02-23T18:01:18.344Z,15.90
2023-02-23T18:03:52.302Z,15.52
2023-02-23T18:06:23.097Z,16.15
2023-02-23T18:08:53.912Z,16.13
2023-02-23T18:11:25.172Z,16.75
2023-02-23T18:13:56.440Z,17.08
2023-02-23T18:16:27.400Z,16.10
2023-02-23T18:19:01.058Z,15.55
2023-02-23T18:21:34.769Z,14.93
2023-02-23T18:24:06.118Z,15.45
2023-02-23T18:26:37.049Z,14.88
2023-02-23T18:29:08.230Z,16.30
2023-02-23T18:31:39.252Z,15.75
2023-02-23T18:34:13.811Z,15.77
2023-02-23T18:36:45.418Z,16.35
2023-02-23T18:39:17.064Z,15.50
2023-02-23T18:41:48.054Z,16.30
2023-02-23T18:44:22.141Z,16.15
2023-02-23T18:46:55.164Z,15.85
2023-02-23T18:49:29.092Z,16.35
2023-02-23T18:52:00.499Z,16.13
2023-02-23T18:54:31.779Z,16.10
2023-02-23T18:57:02.775Z,15.18
2023-02-23T18:59:33.665Z,16.25
2023-02-23T19:02:04.688Z,15.95
2023-02-23T19:04:39.557Z,15.82
2023-02-23T19:07:10.467Z,15.98
2023-02-23T19:09:42.336Z,16.38
2023-02-23T19:12:14.831Z,14.57
2023-02-23T19:14:49.705Z,16.15
2023-02-23T19:17:20.892Z,15.90
2023-02-23T19:19:57.787Z,16.60
2023-02-23T19:22:29.597Z,15.68
2023-02-23T19:25:00.423Z,15.98
2023-02-23T19:27:31.392Z,17.25
2023-02-23T19:30:02.186Z,17.45
2023-02-23T19:32:33.304Z,15.82
2023-02-23T19:35:07.277Z,14.52
2023-02-23T19:37:38.944Z,14.30
2023-02-23T19:40:14.196Z,15.07
2023-02-23T19:42:46.254Z,15.25
2023-02-23T19:45:17.885Z,16.05
2023-02-23T19:47:48.726Z,15.38
2023-02-23T19:50:22.520Z,14.57
2023-02-23T19:52:54.771Z,14.15
2023-02-23T19:55:25.708Z,15.27
2023-02-23T19:57:57.638Z,13.57
2023-02-23T20:00:28.833Z,14.07
2023-02-23T20:03:06.428Z,14.38
2023-02-23T20:05:44.534Z,15.13
2023-02-23T20:08:19.504Z,13.75
2023-02-23T20:10:50.767Z,13.45
2023-02-23T20:13:23.626Z,14.40
2023-02-23T20:16:02.645Z,14.38
2023-02-23T20:18:33.706Z,14.80
2023-02-23T20:21:11.278Z,14.95
2023-02-23T20:23:42.507Z,15.77
2023-02-23T20:26:16.208Z,14.20
2023-02-23T20:28:47.474Z,14.80
2023-02-23T20:31:21.261Z,14.82
2023-02-23T20:33:53.130Z,14.43
2023-02-23T20:36:27.868Z,15.38
2023-02-23T20:38:58.667Z,15.07
2023-02-23T20:41:31.788Z,15.50
2023-02-23T20:44:03.447Z,14.73
2023-02-23T20:46:34.350Z,14.82
2023-02-23T20:49:05.202Z,15.00
2023-02-23T20:51:38.820Z,14.35
2023-02-23T20:54:11.330Z,13.63
2023-02-23T20:56:43.869Z,13.57
2023-02-23T20:59:16.205Z,14.23
2023-02-23T21:01:47.229Z,13.90
2023-02-23T21:04:19.051Z,14.48
2023-02-23T21:06:52.662Z,13.98
2023-02-23T21:09:24.702Z,14.25
2023-02-23T21:11:55.699Z,13.63
2023-02-23T21:14:26.645Z,13.85
2023-02-23T21:16:57.556Z,13.90
2023-02-23T21:19:28.377Z,13.38
2023-02-23T21:22:03.051Z,13.32
2023-02-23T21:24:34.983Z,12.60
2023-02-23T21:27:06.579Z,13.15
2023-02-23T21:29:37.430Z,13.00
2023-02-23T21:32:09.104Z,12.23
2023-02-23T21:34:40.405Z,11.88
2023-02-23T21:37:13.859Z,12.63
2023-02-23T21:39:46.939Z,12.63
2023-02-23T21:42:23.103Z,12.85
2023-02-23T21:47:25.756Z,11.32
2023-02-23T21:49:56.755Z,12.20
2023-02-23T21:52:31.627Z,11.70
2023-02-23T21:55:07.834Z,11.98
2023-02-23T21:57:41.712Z,11.77
2023-02-23T22:00:19.222Z,11.95
2023-02-23T22:02:50.325Z,10.82
2023-02-23T22:05:23.647Z,11.88
2023-02-23T22:07:58.800Z,11.30
2023-02-23T22:10:29.621Z,10.55
2023-02-23T22:13:01.112Z,9.90
2023-02-23T22:15:32.038Z,10.38
2023-02-23T22:18:03.086Z,9.07
2023-02-23T22:20:34.020Z,9.57
2023-02-23T22:23:07.687Z,9.55
2023-02-23T22:25:38.551Z,9.98
2023-02-23T22:28:10.868Z,9.57
2023-02-23T22:30:44.782Z,9.98
2023-02-23T22:33:15.905Z,10.15
2023-02-23T22:35:46.869Z,10.20
2023-02-23T22:38:21.181Z,10.00
2023-02-23T22:40:52.045Z,10.73
2023-02-23T22:43:23.049Z,11.52
2023-02-23T22:45:57.514Z,11.15
2023-02-23T22:48:29.092Z,12.05
2023-02-23T22:51:00.487Z,12.38
2023-02-23T22:53:37.865Z,12.65
2023-02-23T22:56:09.494Z,12.43
2023-02-23T22:58:42.432Z,13.07
2023-02-23T23:01:14.876Z,12.75
2023-02-23T23:03:47.772Z,13.23
2023-02-23T23:06:22.408Z,14.18
2023-02-23T23:08:58.768Z,13.45
2023-02-23T23:11:31.102Z,12.85
2023-02-23T23:14:07.110Z,13.73
2023-02-23T23:16:40.814Z,13.25
2023-02-23T23:19:13.249Z,12.15
2023-02-23T23:21:46.133Z,12.32
2023-02-23T23:24:19.584Z,12.77
2023-02-23T23:26:55.413Z,11.95
2023-02-23T23:29:30.739Z,11.77
2023-02-23T23:32:02.902Z,13.55
2023-02-23T23:34:33.927Z,12.30
2023-02-23T23:37:05.065Z,11.43
2023-02-23T23:39:38.559Z,12.95
2023-02-23T23:42:09.435Z,12.20
2023-02-23T23:44:40.448Z,12.00
2023-02-23T23:47:11.530Z,12.55
2023-02-23T23:49:42.552Z,11.60
2023-02-23T23:52:18.012Z,12.40
2023-02-23T23:54:52.083Z,12.02
2023-02-23T23:57:22.942Z,12.15
2023-02-23T23:59:54.004Z,13.57
